createdAt,value
2023-01-21T00:02:18.804Z,97911.41
2023-01-21T00:04:48.263Z,97907.34
2023-01-21T00:07:17.147Z,97917.31
2023-01-21T00:09:46.083Z,97919.88
2023-01-21T00:12:16.164Z,97929.06
2023-01-21T00:14:45.145Z,97916.84
2023-01-21T00:17:14.364Z,97938.28
2023-01-21T00:19:43.402Z,97942.50
2023-01-21T00:22:12.871Z,97947.47
2023-01-21T00:24:41.712Z,97946.69
2023-01-21T00:27:10.474Z,97950.06
2023-01-21T00:29:39.380Z,97948.44
2023-01-21T00:32:08.251Z,97954.25
2023-01-21T00:34:37.128Z,97963.31
2023-01-21T00:37:05.991Z,97975.00
2023-01-21T00:39:35.325Z,97973.38
2023-01-21T00:42:05.614Z,97979.97
2023-01-21T00:44:34.595Z,97982.41
2023-01-21T00:47:03.638Z,97979.16
2023-01-21T00:49:32.922Z,97990.84
2023-01-21T00:52:02.099Z,97998.41
2023-01-21T00:54:33.005Z,97992.66
2023-01-21T00:57:01.917Z,97998.47
2023-01-21T00:59:31.004Z,98006.75
2023-01-21T01:02:00.823Z,98011.72
2023-01-21T01:04:29.973Z,98015.00
2023-01-21T01:06:58.945Z,98010.88
2023-01-21T01:09:27.905Z,98013.28
2023-01-21T01:11:56.970Z,98019.13
2023-01-21T01:14:26.173Z,98022.47
2023-01-21T01:16:55.026Z,98014.22
2023-01-21T01:19:23.797Z,98032.41
2023-01-21T01:21:52.702Z,98024.09
2023-01-21T01:24:21.574Z,98035.63
2023-01-21T01:26:50.369Z,98039.78
2023-01-21T01:29:19.230Z,98045.56
2023-01-21T01:31:48.416Z,98041.38
2023-01-21T01:34:17.466Z,98038.06
2023-01-21T01:36:46.292Z,98037.22
2023-01-21T01:39:15.364Z,98049.66
2023-01-21T01:41:44.852Z,98046.34
2023-01-21T01:44:50.626Z,98053.75
2023-01-21T01:47:19.968Z,98051.31
2023-01-21T01:49:49.380Z,98074.53
2023-01-21T01:52:20.421Z,98066.25
2023-01-21T01:54:53.904Z,98067.03
2023-01-21T01:57:27.506Z,98060.28
2023-01-21T01:59:56.463Z,98049.44
2023-01-21T02:02:26.644Z,98069.88
2023-01-21T02:05:00.143Z,98069.69
2023-01-21T02:07:33.799Z,98079.41
2023-01-21T02:10:03.225Z,98074.31
2023-01-21T02:12:32.404Z,98083.28
2023-01-21T02:15:01.500Z,98083.16
2023-01-21T02:18:24.337Z,98087.81
2023-01-21T02:20:59.121Z,98104.00
2023-01-21T02:24:05.052Z,98100.94
2023-01-21T02:26:45.874Z,98103.78
2023-01-21T02:29:23.521Z,98100.06
2023-01-21T02:32:33.682Z,98113.81
2023-01-21T02:35:40.181Z,98112.09
2023-01-21T02:38:35.720Z,98111.63
2023-01-21T02:41:07.259Z,98114.00
2023-01-21T02:44:13.992Z,98114.63
2023-01-21T02:46:59.494Z,98118.69
2023-01-21T02:49:38.062Z,98104.69
2023-01-21T02:52:06.975Z,98118.69
2023-01-21T02:54:41.984Z,98131.28
2023-01-21T02:57:15.325Z,98132.03
2023-01-21T02:59:48.799Z,98111.00
2023-01-21T03:02:49.693Z,98136.50
2023-01-21T03:05:40.766Z,98136.56
2023-01-21T03:08:19.734Z,98136.44
2023-01-21T03:11:04.633Z,98130.59
2023-01-21T03:14:13.560Z,98148.75
2023-01-21T03:16:57.800Z,98154.19
2023-01-21T03:19:38.019Z,98156.81
2023-01-21T03:22:15.840Z,98160.28
2023-01-21T03:24:48.096Z,98153.28
2023-01-21T03:27:23.113Z,98163.72
2023-01-21T03:29:58.911Z,98157.44
2023-01-21T03:32:30.633Z,98168.75
2023-01-21T03:35:02.393Z,98177.38
2023-01-21T03:37:42.535Z,98178.31
2023-01-21T03:40:26.994Z,98177.66
2023-01-21T03:42:57.054Z,98179.53
2023-01-21T03:45:38.567Z,98185.53
2023-01-21T03:48:21.500Z,98183.88
2023-01-21T03:51:00.192Z,98185.91
2023-01-21T03:53:30.078Z,98181.44
2023-01-21T03:56:00.527Z,98177.50
2023-01-21T03:58:29.697Z,98192.34
2023-01-21T04:00:59.432Z,98208.31
2023-01-21T04:03:28.479Z,98208.41
2023-01-21T04:05:57.331Z,98210.97
2023-01-21T04:08:26.208Z,98200.88
2023-01-21T04:10:55.409Z,98204.06
2023-01-21T04:13:24.282Z,98206.66
2023-01-21T04:15:53.197Z,98222.59
2023-01-21T04:18:22.127Z,98220.19
2023-01-21T04:20:51.288Z,98217.72
2023-01-21T04:23:20.175Z,98198.63
2023-01-21T04:25:50.028Z,98216.06
2023-01-21T04:28:20.434Z,98225.88
2023-01-21T04:30:49.809Z,98212.34
2023-01-21T04:33:19.051Z,98227.06
2023-01-21T04:35:47.882Z,98231.97
2023-01-21T04:38:16.869Z,98226.94
2023-01-21T04:40:45.806Z,98238.31
2023-01-21T04:43:14.660Z,98234.91
2023-01-21T04:45:43.638Z,98238.19
2023-01-21T04:48:12.564Z,98234.66
2023-01-21T04:50:41.437Z,98222.25
2023-01-21T04:53:10.312Z,98246.19
2023-01-21T04:55:39.242Z,98247.25
2023-01-21T04:58:08.372Z,98243.16
2023-01-21T05:00:38.344Z,98248.38
2023-01-21T05:03:07.617Z,98260.34
2023-01-21T05:05:36.454Z,98271.28
2023-01-21T05:08:05.408Z,98268.25
2023-01-21T05:10:34.230Z,98270.16
2023-01-21T05:13:03.321Z,98274.31
2023-01-21T05:15:32.835Z,98269.28
2023-01-21T05:18:01.712Z,98278.47
2023-01-21T05:20:30.645Z,98284.22
2023-01-21T05:22:59.613Z,98282.50
2023-01-21T05:25:28.672Z,98283.94
2023-01-21T05:27:57.531Z,98286.38
2023-01-21T05:30:26.314Z,98292.56
2023-01-21T05:32:56.237Z,98288.75
2023-01-21T05:35:25.241Z,98281.41
2023-01-21T05:37:54.156Z,98297.31
2023-01-21T05:40:23.500Z,98292.50
2023-01-21T05:42:52.600Z,98295.09
2023-01-21T05:45:21.588Z,98302.59
2023-01-21T05:47:50.434Z,98293.63
2023-01-21T05:50:19.518Z,98297.88
2023-01-21T05:52:48.438Z,98305.41
2023-01-21T05:55:17.299Z,98303.72
2023-01-21T05:57:46.177Z,98302.97
2023-01-21T06:00:16.909Z,98319.59
2023-01-21T06:02:46.078Z,98302.97
2023-01-21T06:05:15.121Z,98306.22
2023-01-21T06:07:43.990Z,98299.28
2023-01-21T06:10:13.180Z,98308.16
2023-01-21T06:12:42.011Z,98304.69
2023-01-21T06:15:11.368Z,98310.38
2023-01-21T06:17:41.019Z,98313.63
2023-01-21T06:20:10.716Z,98311.97
2023-01-21T06:22:39.795Z,98312.72
2023-01-21T06:25:09.144Z,98315.16
2023-01-21T06:27:39.018Z,98317.72
2023-01-21T06:30:10.498Z,98318.59
2023-01-21T06:32:39.545Z,98325.31
2023-01-21T06:35:09.239Z,98324.59
2023-01-21T06:37:38.336Z,98324.59
2023-01-21T06:40:09.103Z,98336.28
2023-01-21T06:42:38.144Z,98339.63
2023-01-21T06:45:07.731Z,98344.63
2023-01-21T06:47:36.744Z,98354.69
2023-01-21T06:50:05.875Z,98351.38
2023-01-21T06:52:34.713Z,98354.69
2023-01-21T06:55:03.580Z,98360.38
2023-01-21T06:57:32.707Z,98356.94
2023-01-21T07:00:01.906Z,98358.44
2023-01-21T07:02:33.155Z,98369.09
2023-01-21T07:05:02.439Z,98366.72
2023-01-21T07:07:32.045Z,98358.38
2023-01-21T07:10:00.954Z,98372.56
2023-01-21T07:12:32.543Z,98385.88
2023-01-21T07:15:01.463Z,98381.66
2023-01-21T07:17:32.617Z,98391.59
2023-01-21T07:20:01.458Z,98386.69
2023-01-21T07:22:31.689Z,98399.09
2023-01-21T07:25:00.586Z,98406.72
2023-01-21T07:27:30.239Z,98407.78
2023-01-21T07:29:59.103Z,98410.38
2023-01-21T07:32:27.899Z,98407.81
2023-01-21T07:34:56.868Z,98422.78
2023-01-21T07:37:25.964Z,98425.13
2023-01-21T07:39:56.544Z,98422.56
2023-01-21T07:42:25.511Z,98416.84
2023-01-21T07:44:54.735Z,98439.63
2023-01-21T07:47:24.024Z,98438.13
2023-01-21T07:49:52.905Z,98444.03
2023-01-21T07:52:21.863Z,98448.31
2023-01-21T07:54:50.679Z,98447.59
2023-01-21T07:57:19.740Z,98450.13
2023-01-21T07:59:48.685Z,98448.50
2023-01-21T08:02:18.363Z,98460.28
2023-01-21T08:04:48.308Z,98475.47
2023-01-21T08:07:17.386Z,98472.22
2023-01-21T08:09:46.438Z,98465.66
2023-01-21T08:12:15.300Z,98471.59
2023-01-21T08:14:44.109Z,98479.63
2023-01-21T08:17:12.928Z,98484.44
2023-01-21T08:19:41.779Z,98489.22
2023-01-21T08:22:11.084Z,98488.44
2023-01-21T08:24:40.013Z,98496.31
2023-01-21T08:27:09.072Z,98480.72
2023-01-21T08:29:37.959Z,98497.88
2023-01-21T08:32:06.793Z,98496.56
2023-01-21T08:34:35.670Z,98506.69
2023-01-21T08:37:04.676Z,98511.63
2023-01-21T08:39:33.647Z,98514.31
2023-01-21T08:42:02.452Z,98516.59
2023-01-21T08:44:31.433Z,98519.19
2023-01-21T08:47:00.317Z,98517.66
2023-01-21T08:49:29.149Z,98528.69
2023-01-21T08:51:58.285Z,98528.78
2023-01-21T08:54:27.386Z,98536.84
2023-01-21T08:56:56.836Z,98541.72
2023-01-21T08:59:29.320Z,98545.25
2023-01-21T09:01:59.153Z,98548.28
2023-01-21T09:04:28.346Z,98554.66
2023-01-21T09:06:57.363Z,98557.50
2023-01-21T09:09:26.278Z,98549.41
2023-01-21T09:11:55.211Z,98576.28
2023-01-21T09:14:24.203Z,98580.28
2023-01-21T09:16:53.163Z,98582.13
2023-01-21T09:19:22.201Z,98584.47
2023-01-21T09:21:53.189Z,98592.56
2023-01-21T09:24:22.492Z,98598.81
2023-01-21T09:26:51.436Z,98605.13
2023-01-21T09:29:20.381Z,98604.59
2023-01-21T09:31:49.318Z,98621.44
2023-01-21T09:34:18.729Z,98632.38
2023-01-21T09:36:47.891Z,98627.72
2023-01-21T09:39:16.791Z,98633.66
2023-01-21T09:41:54.315Z,98645.44
2023-01-21T09:44:45.361Z,98642.31
2023-01-21T09:47:34.901Z,98655.69
2023-01-21T09:50:17.375Z,98659.97
2023-01-21T09:52:49.374Z,98663.47
2023-01-21T09:55:42.826Z,98673.53
2023-01-21T09:58:20.483Z,98679.38
2023-01-21T10:01:07.534Z,98691.13
2023-01-21T10:03:58.417Z,98672.19
2023-01-21T10:07:07.769Z,98681.38
2023-01-21T10:09:54.072Z,98678.91
2023-01-21T10:12:31.556Z,98696.34
2023-01-21T10:15:06.438Z,98689.69
2023-01-21T10:17:35.318Z,98698.88
2023-01-21T10:20:35.755Z,98698.06
2023-01-21T10:23:07.114Z,98706.41
2023-01-21T10:25:37.900Z,98711.44
2023-01-21T10:28:15.367Z,98698.19
2023-01-21T10:30:48.052Z,98723.97
2023-01-21T10:33:35.104Z,98720.66
2023-01-21T10:36:39.399Z,98733.13
2023-01-21T10:39:32.732Z,98739.78
2023-01-21T10:42:01.364Z,98741.47
2023-01-21T10:44:33.200Z,98737.31
2023-01-21T10:47:22.396Z,98739.84
2023-01-21T10:50:12.636Z,98743.16
2023-01-21T10:53:03.033Z,98755.66
2023-01-21T10:56:04.061Z,98756.50
2023-01-21T10:59:00.299Z,98755.66
2023-01-21T11:01:35.948Z,98738.22
2023-01-21T11:04:15.493Z,98761.50
2023-01-21T11:06:46.785Z,98769.78
2023-01-21T11:09:16.560Z,98778.09
2023-01-21T11:11:47.054Z,98770.63
2023-01-21T11:14:16.066Z,98788.91
2023-01-21T11:16:47.724Z,98789.72
2023-01-21T11:19:25.620Z,98795.53
2023-01-21T11:22:00.912Z,98796.34
2023-01-21T11:24:31.211Z,98793.03
2023-01-21T11:27:03.040Z,98798.84
2023-01-21T11:29:42.422Z,98808.81
2023-01-21T11:32:26.431Z,98809.66
2023-01-21T11:35:10.430Z,98817.13
2023-01-21T11:37:39.647Z,98815.50
2023-01-21T11:40:20.833Z,98822.13
2023-01-21T11:42:55.954Z,98825.47
2023-01-21T11:45:34.025Z,98829.63
2023-01-21T11:48:14.567Z,98832.13
2023-01-21T11:50:43.436Z,98841.25
2023-01-21T11:53:18.161Z,98835.44
2023-01-21T11:56:00.493Z,98862.03
2023-01-21T11:58:35.977Z,98856.22
2023-01-21T12:01:19.506Z,98859.50
2023-01-21T12:03:50.125Z,98867.00
2023-01-21T12:06:21.845Z,98871.16
2023-01-21T12:08:53.688Z,98882.75
2023-01-21T12:11:25.791Z,98889.41
2023-01-21T12:14:09.647Z,98882.75
2023-01-21T12:16:43.840Z,98887.75
2023-01-21T12:19:54.052Z,98904.38
2023-01-21T12:22:32.615Z,98901.78
2023-01-21T12:25:19.141Z,98906.81
2023-01-21T12:27:57.147Z,98915.09
2023-01-21T12:30:46.557Z,98906.78
2023-01-21T12:33:54.593Z,98921.72
2023-01-21T12:36:40.656Z,98925.91
2023-01-21T12:39:12.164Z,98934.19
2023-01-21T12:41:45.070Z,98932.47
2023-01-21T12:44:17.357Z,98942.47
2023-01-21T12:46:50.832Z,98945.78
2023-01-21T12:49:49.920Z,98945.75
2023-01-21T12:52:35.336Z,98953.25
2023-01-21T12:55:42.343Z,98956.53
2023-01-21T12:58:21.738Z,98958.97
2023-01-21T13:00:54.153Z,98969.75
2023-01-21T13:03:33.781Z,98975.56
2023-01-21T13:06:24.059Z,98981.41
2023-01-21T13:09:15.059Z,98972.22
2023-01-21T13:11:59.547Z,98979.75
2023-01-21T13:14:35.255Z,98975.56
2023-01-21T13:17:27.769Z,98985.53
2023-01-21T13:19:56.954Z,98984.72
2023-01-21T13:22:33.147Z,99002.13
2023-01-21T13:25:39.887Z,98984.63
2023-01-21T13:28:27.071Z,98999.63
2023-01-21T13:31:00.464Z,99004.56
2023-01-21T13:33:48.238Z,99002.84
2023-01-21T13:36:31.136Z,99008.63
2023-01-21T13:39:17.995Z,99011.03
2023-01-21T13:42:29.151Z,99023.41
2023-01-21T13:45:06.908Z,99030.03
2023-01-21T13:48:08.281Z,99040.00
2023-01-21T13:50:58.468Z,99030.84
2023-01-21T13:53:38.623Z,99036.63
2023-01-21T13:56:44.936Z,99029.13
2023-01-21T13:59:21.990Z,99029.06
2023-01-21T14:02:30.485Z,99037.34
2023-01-21T14:05:11.523Z,99032.25
2023-01-21T14:07:54.491Z,99038.09
2023-01-21T14:10:35.166Z,99039.81
2023-01-21T14:13:28.325Z,99042.41
2023-01-21T14:16:18.621Z,99048.22
2023-01-21T14:19:09.168Z,99049.13
2023-01-21T14:21:40.817Z,99059.91
2023-01-21T14:24:26.188Z,99059.91
2023-01-21T14:27:19.963Z,99056.53
2023-01-21T14:29:57.611Z,99062.28
2023-01-21T14:32:36.220Z,99062.19
2023-01-21T14:35:10.989Z,99074.50
2023-01-21T14:37:44.058Z,99064.44
2023-01-21T14:40:17.844Z,99073.59
2023-01-21T14:42:48.446Z,99077.75
2023-01-21T14:45:23.033Z,99077.78
2023-01-21T14:47:58.335Z,99084.47
2023-01-21T14:50:47.593Z,99095.34
2023-01-21T14:53:25.801Z,99101.19
2023-01-21T14:56:22.427Z,99107.78
2023-01-21T14:58:55.718Z,99082.75
2023-01-21T15:01:40.179Z,99093.59
2023-01-21T15:04:32.011Z,99109.50
2023-01-21T15:07:07.284Z,99102.94
2023-01-21T15:09:42.433Z,99107.13
2023-01-21T15:12:39.800Z,99116.25
2023-01-21T15:15:31.745Z,99121.13
2023-01-21T15:18:24.467Z,99131.16
2023-01-21T15:21:01.982Z,99130.41
2023-01-21T15:23:30.845Z,99129.66
2023-01-21T15:26:20.086Z,99130.44
2023-01-21T15:28:50.097Z,99139.44
2023-01-21T15:31:22.139Z,99143.53
2023-01-21T15:34:04.792Z,99150.97
2023-01-21T15:36:44.969Z,99150.16
2023-01-21T15:39:20.117Z,99156.81
2023-01-21T15:42:12.657Z,99163.53
2023-01-21T15:45:16.303Z,99166.03
2023-01-21T15:48:40.245Z,99161.09
2023-01-21T15:51:47.110Z,99164.44
2023-01-21T15:54:23.141Z,99170.31
2023-01-21T15:57:15.892Z,99151.19
2023-01-21T15:59:53.811Z,99161.97
2023-01-21T16:02:32.852Z,99162.75
2023-01-21T16:05:23.889Z,99160.22
2023-01-21T16:08:14.593Z,99161.81
2023-01-21T16:11:06.533Z,99169.19
2023-01-21T16:14:07.778Z,99164.09
2023-01-21T16:16:58.514Z,99165.78
2023-01-21T16:19:34.059Z,99172.47
2023-01-21T16:22:08.153Z,99174.97
2023-01-21T16:24:49.269Z,99172.44
2023-01-21T16:27:27.487Z,99174.03
2023-01-21T16:30:06.569Z,99177.44
2023-01-21T16:32:37.592Z,99174.13
2023-01-21T16:35:06.993Z,99174.16
2023-01-21T16:37:36.079Z,99184.09
2023-01-21T16:40:40.437Z,99186.53
2023-01-21T16:43:25.989Z,99196.31
2023-01-21T16:46:02.072Z,99192.06
2023-01-21T16:48:33.595Z,99188.69
2023-01-21T16:51:02.907Z,99192.00
2023-01-21T16:53:32.169Z,99189.56
2023-01-21T16:56:01.083Z,99188.75
2023-01-21T16:58:33.006Z,99200.41
2023-01-21T17:01:09.811Z,99171.19
2023-01-21T17:03:39.877Z,99193.72
2023-01-21T17:06:20.656Z,99200.34
2023-01-21T17:08:55.668Z,99194.50
2023-01-21T17:11:24.680Z,99195.28
2023-01-21T17:13:53.953Z,99205.22
2023-01-21T17:16:33.577Z,99194.50
2023-01-21T17:19:06.576Z,99198.69
2023-01-21T17:21:45.331Z,99196.25
2023-01-21T17:24:39.347Z,99202.13
2023-01-21T17:27:17.271Z,99205.47
2023-01-21T17:29:46.211Z,99208.00
2023-01-21T17:32:34.437Z,99201.22
2023-01-21T17:35:15.533Z,99210.34
2023-01-21T17:37:52.123Z,99206.09
2023-01-21T17:40:26.316Z,99192.69
2023-01-21T17:42:56.019Z,99207.75
2023-01-21T17:45:31.724Z,99208.59
2023-01-21T17:48:10.185Z,99212.72
2023-01-21T17:50:47.050Z,99208.50
2023-01-21T17:53:26.314Z,99215.22
2023-01-21T17:56:05.275Z,99221.97
2023-01-21T17:58:53.434Z,99222.81
2023-01-21T18:01:23.397Z,99236.16
2023-01-21T18:03:52.525Z,99236.97
2023-01-21T18:06:27.457Z,99240.31
2023-01-21T18:08:58.512Z,99234.47
2023-01-21T18:11:27.383Z,99241.09
2023-01-21T18:13:56.217Z,99253.56
2023-01-21T18:16:25.130Z,99244.31
2023-01-21T18:18:54.713Z,99244.22
2023-01-21T18:21:23.727Z,99234.03
2023-01-21T18:23:52.710Z,99253.91
2023-01-21T18:26:28.314Z,99252.16
2023-01-21T18:28:57.116Z,99253.84
2023-01-21T18:31:26.093Z,99245.63
2023-01-21T18:33:55.018Z,99246.63
2023-01-21T18:36:23.881Z,99247.56
2023-01-21T18:38:52.837Z,99249.28
2023-01-21T18:41:21.798Z,99254.19
2023-01-21T18:43:50.711Z,99260.66
2023-01-21T18:46:20.911Z,99269.69
2023-01-21T18:48:49.830Z,99268.59
2023-01-21T18:51:18.723Z,99284.28
2023-01-21T18:53:47.661Z,99286.78
2023-01-21T18:56:17.231Z,99288.50
2023-01-21T18:58:46.137Z,99304.50
2023-01-21T19:01:23.044Z,99303.78
2023-01-21T19:03:55.019Z,99303.91
2023-01-21T19:06:25.646Z,99317.00
2023-01-21T19:08:55.588Z,99312.50
2023-01-21T19:11:24.557Z,99335.53
2023-01-21T19:13:53.432Z,99331.16
2023-01-21T19:16:22.750Z,99337.00
2023-01-21T19:18:51.658Z,99356.09
2023-01-21T19:21:21.508Z,99349.50
2023-01-21T19:23:50.329Z,99342.84
2023-01-21T19:26:19.235Z,99351.91
2023-01-21T19:28:48.230Z,99350.94
2023-01-21T19:31:17.171Z,99354.84
2023-01-21T19:33:48.185Z,99376.47
2023-01-21T19:36:21.024Z,99379.75
2023-01-21T19:38:59.846Z,99379.69
2023-01-21T19:41:28.943Z,99376.31
2023-01-21T19:43:57.940Z,99369.69
2023-01-21T19:46:29.341Z,99379.56
2023-01-21T19:48:59.490Z,99381.13
2023-01-21T19:51:31.820Z,99379.41
2023-01-21T19:54:01.162Z,99383.34
2023-01-21T19:56:30.094Z,99388.22
2023-01-21T19:58:59.628Z,99396.53
2023-01-21T20:01:30.244Z,99401.44
2023-01-21T20:04:01.048Z,99401.44
2023-01-21T20:06:35.732Z,99414.00
2023-01-21T20:09:05.906Z,99411.53
2023-01-21T20:11:35.693Z,99400.72
2023-01-21T20:14:04.585Z,99409.06
2023-01-21T20:16:33.921Z,99396.56
2023-01-21T20:19:02.820Z,99398.34
2023-01-21T20:21:31.644Z,99400.13
2023-01-21T20:24:00.833Z,99400.09
2023-01-21T20:26:29.924Z,99395.81
2023-01-21T20:29:01.899Z,99403.31
2023-01-21T20:31:31.284Z,99410.78
2023-01-21T20:34:00.748Z,99410.94
2023-01-21T20:36:29.785Z,99411.13
2023-01-21T20:38:58.729Z,99416.13
2023-01-21T20:41:27.682Z,99412.13
2023-01-21T20:43:56.683Z,99408.75
2023-01-21T20:46:29.005Z,99417.88
2023-01-21T20:48:58.601Z,99412.81
2023-01-21T20:51:28.402Z,99414.34
2023-01-21T20:53:57.240Z,99414.09
2023-01-21T20:56:31.859Z,99425.63
2023-01-21T20:59:01.619Z,99418.22
2023-01-21T21:01:35.283Z,99422.41
2023-01-21T21:04:04.504Z,99439.00
2023-01-21T21:06:34.121Z,99445.66
2023-01-21T21:09:02.957Z,99429.84
2023-01-21T21:11:31.761Z,99439.22
2023-01-21T21:14:02.370Z,99441.00
2023-01-21T21:16:32.477Z,99445.38
2023-01-21T21:19:01.580Z,99448.00
2023-01-21T21:21:30.455Z,99438.97
2023-01-21T21:23:59.537Z,99437.25
2023-01-21T21:26:33.845Z,99434.91
2023-01-21T21:29:02.608Z,99445.81
2023-01-21T21:31:33.644Z,99445.06
2023-01-21T21:34:02.450Z,99437.59
2023-01-21T21:36:31.766Z,99443.50
2023-01-21T21:39:00.715Z,99458.53
2023-01-21T21:41:47.775Z,99457.00
2023-01-21T21:44:16.610Z,99463.78
2023-01-21T21:47:03.967Z,99463.88
2023-01-21T21:49:33.382Z,99464.75
2023-01-21T21:52:02.430Z,99458.91
2023-01-21T21:54:32.185Z,99471.47
2023-01-21T21:57:01.202Z,99471.44
2023-01-21T21:59:30.083Z,99469.78
2023-01-21T22:02:01.375Z,99468.91
2023-01-21T22:04:30.701Z,99466.34
2023-01-21T22:06:59.565Z,99470.50
2023-01-21T22:09:28.388Z,99484.69
2023-01-21T22:11:57.232Z,99478.91
2023-01-21T22:14:26.076Z,99480.63
2023-01-21T22:16:54.970Z,99484.78
2023-01-21T22:19:23.901Z,99498.88
2023-01-21T22:21:52.933Z,99501.38
2023-01-21T22:24:22.063Z,99503.06
2023-01-21T22:26:50.813Z,99502.31
2023-01-21T22:29:19.652Z,99502.31
2023-01-21T22:31:48.711Z,99514.72
2023-01-21T22:34:17.653Z,99510.53
2023-01-21T22:36:48.446Z,99522.97
2023-01-21T22:39:17.497Z,99523.84
2023-01-21T22:41:46.382Z,99522.13
2023-01-21T22:44:15.272Z,99518.69
2023-01-21T22:46:44.171Z,99533.50
2023-01-21T22:49:13.153Z,99525.06
2023-01-21T22:51:42.029Z,99518.19
2023-01-21T22:54:11.369Z,99524.00
2023-01-21T22:56:52.751Z,99535.59
2023-01-21T22:59:22.254Z,99527.13
2023-01-21T23:01:52.060Z,99542.78
2023-01-21T23:04:21.084Z,99549.31
2023-01-21T23:06:55.264Z,99552.50
2023-01-21T23:09:24.243Z,99553.22
2023-01-21T23:11:53.295Z,99549.00
2023-01-21T23:14:22.350Z,99552.28
2023-01-21T23:16:53.485Z,99550.72
2023-01-21T23:19:22.431Z,99544.19
2023-01-21T23:21:51.322Z,99558.44
2023-01-21T23:24:20.472Z,99563.59
2023-01-21T23:26:49.389Z,99565.47
2023-01-21T23:29:18.242Z,99578.94
2023-01-21T23:31:47.263Z,99580.69
2023-01-21T23:34:16.422Z,99567.47
2023-01-21T23:36:45.266Z,99579.97
2023-01-21T23:39:14.026Z,99587.56
2023-01-21T23:41:42.886Z,99582.59
2023-01-21T23:44:11.706Z,99589.25
2023-01-21T23:46:40.587Z,99586.75
2023-01-21T23:49:09.403Z,99596.88
2023-01-21T23:51:38.224Z,99589.53
2023-01-21T23:54:07.356Z,99594.59
2023-01-21T23:56:36.223Z,99595.44
2023-01-21T23:59:06.099Z,99600.34
